sensor_id;sensor_type;location;lat;lon;timestamp;P1;durP1;ratioP1;P2;durP2;ratioP2
1959;SDS011;980;43.794;11.212;2022-12-29T00:02:22;16.50;;;13.25;;
1959;SDS011;980;43.794;11.212;2022-12-29T00:04:49;13.67;;;12.33;;
1959;SDS011;980;43.794;11.212;2022-12-29T00:07:14;15.00;;;14.75;;
1959;SDS011;980;43.794;11.212;2022-12-29T00:09:39;15.00;;;14.00;;
1959;SDS011;980;43.794;11.212;2022-12-29T00:12:04;10.67;;;9.67;;
1959;SDS011;980;43.794;11.212;2022-12-29T00:14:30;14.75;;;14.00;;
1959;SDS011;980;43.794;11.212;2022-12-29T00:17:14;13.60;;;13.60;;
1959;SDS011;980;43.794;11.212;2022-12-29T00:19:39;12.00;;;12.00;;
1959;SDS011;980;43.794;11.212;2022-12-29T00:22:23;12.40;;;12.40;;
1959;SDS011;980;43.794;11.212;2022-12-29T00:25:09;14.00;;;10.50;;
1959;SDS011;980;43.794;11.212;2022-12-29T00:27:53;10.00;;;10.00;;
1959;SDS011;980;43.794;11.212;2022-12-29T00:30:36;10.50;;;9.75;;
1959;SDS011;980;43.794;11.212;2022-12-29T00:33:21;13.20;;;10.00;;
1959;SDS011;980;43.794;11.212;2022-12-29T00:38:50;10.20;;;8.00;;
1959;SDS011;980;43.794;11.212;2022-12-29T00:41:35;10.25;;;9.00;;
1959;SDS011;980;43.794;11.212;2022-12-29T00:44:19;8.40;;;8.40;;
1959;SDS011;980;43.794;11.212;2022-12-29T00:46:44;12.25;;;9.75;;
1959;SDS011;980;43.794;11.212;2022-12-29T00:49:11;7.00;;;7.00;;
1959;SDS011;980;43.794;11.212;2022-12-29T00:51:55;7.20;;;7.20;;
1959;SDS011;980;43.794;11.212;2022-12-29T00:54:21;10.00;;;9.00;;
1959;SDS011;980;43.794;11.212;2022-12-29T00:56:47;9.00;;;8.00;;
1959;SDS011;980;43.794;11.212;2022-12-29T00:59:12;8.60;;;8.60;;
1959;SDS011;980;43.794;11.212;2022-12-29T01:01:38;8.00;;;8.00;;
1959;SDS011;980;43.794;11.212;2022-12-29T01:04:03;10.00;;;9.00;;
1959;SDS011;980;43.794;11.212;2022-12-29T01:06:29;8.25;;;7.75;;
1959;SDS011;980;43.794;11.212;2022-12-29T01:08:54;6.67;;;4.67;;
1959;SDS011;980;43.794;11.212;2022-12-29T01:11:38;7.75;;;6.25;;
1959;SDS011;980;43.794;11.212;2022-12-29T01:14:04;7.00;;;6.20;;
1959;SDS011;980;43.794;11.212;2022-12-29T01:16:29;7.33;;;7.33;;
1959;SDS011;980;43.794;11.212;2022-12-29T01:18:54;8.00;;;8.00;;
1959;SDS011;980;43.794;11.212;2022-12-29T01:21:20;8.00;;;8.00;;
1959;SDS011;980;43.794;11.212;2022-12-29T01:23:45;8.00;;;8.00;;
1959;SDS011;980;43.794;11.212;2022-12-29T01:26:14;9.25;;;8.00;;
1959;SDS011;980;43.794;11.212;2022-12-29T01:28:39;12.00;;;9.00;;
1959;SDS011;980;43.794;11.212;2022-12-29T01:31:06;8.40;;;8.00;;
1959;SDS011;980;43.794;11.212;2022-12-29T01:33:32;10.00;;;8.00;;
1959;SDS011;980;43.794;11.212;2022-12-29T01:36:01;11.50;;;11.50;;
1959;SDS011;980;43.794;11.212;2022-12-29T01:38:26;9.00;;;9.00;;
1959;SDS011;980;43.794;11.212;2022-12-29T01:40:51;8.25;;;8.25;;
1959;SDS011;980;43.794;11.212;2022-12-29T01:43:17;12.00;;;8.67;;
1959;SDS011;980;43.794;11.212;2022-12-29T01:45:48;7.33;;;7.33;;
1959;SDS011;980;43.794;11.212;2022-12-29T01:48:15;8.00;;;7.00;;
1959;SDS011;980;43.794;11.212;2022-12-29T01:50:46;14.00;;;9.40;;
1959;SDS011;980;43.794;11.212;2022-12-29T01:53:18;9.00;;;9.00;;
1959;SDS011;980;43.794;11.212;2022-12-29T01:55:49;8.25;;;8.00;;
1959;SDS011;980;43.794;11.212;2022-12-29T01:58:15;9.75;;;9.00;;
1959;SDS011;980;43.794;11.212;2022-12-29T02:00:43;7.80;;;7.80;;
1959;SDS011;980;43.794;11.212;2022-12-29T02:03:08;12.00;;;12.00;;
1959;SDS011;980;43.794;11.212;2022-12-29T02:05:52;8.60;;;8.60;;
1959;SDS011;980;43.794;11.212;2022-12-29T02:08:19;11.33;;;9.00;;
1959;SDS011;980;43.794;11.212;2022-12-29T02:10:45;8.75;;;8.25;;
1959;SDS011;980;43.794;11.212;2022-12-29T02:13:14;8.00;;;8.00;;
1959;SDS011;980;43.794;11.212;2022-12-29T02:23:52;8.50;;;8.25;;
1959;SDS011;980;43.794;11.212;2022-12-29T02:26:29;12.60;;;9.80;;
1959;SDS011;980;43.794;11.212;2022-12-29T02:29:21;5.50;;;5.50;;
1959;SDS011;980;43.794;11.212;2022-12-29T02:39:41;8.00;;;7.00;;
1959;SDS011;980;43.794;11.212;2022-12-29T02:50:01;7.25;;;7.25;;
1959;SDS011;980;43.794;11.212;2022-12-29T02:52:31;7.00;;;4.50;;
1959;SDS011;980;43.794;11.212;2022-12-29T02:55:00;11.20;;;7.80;;
1959;SDS011;980;43.794;11.212;2022-12-29T02:59:54;10.00;;;10.00;;
1959;SDS011;980;43.794;11.212;2022-12-29T04:20:31;12.40;;;11.80;;
1959;SDS011;980;43.794;11.212;2022-12-29T04:23:15;13.00;;;13.00;;
1959;SDS011;980;43.794;11.212;2022-12-29T04:25:40;18.33;;;16.67;;
1959;SDS011;980;43.794;11.212;2022-12-29T04:28:06;17.75;;;14.75;;
1959;SDS011;980;43.794;11.212;2022-12-29T04:30:32;16.00;;;14.50;;
1959;SDS011;980;43.794;11.212;2022-12-29T04:32:58;17.75;;;15.25;;
1959;SDS011;980;43.794;11.212;2022-12-29T04:49:54;14.00;;;12.80;;
1959;SDS011;980;43.794;11.212;2022-12-29T04:52:19;14.00;;;12.00;;
1959;SDS011;980;43.794;11.212;2022-12-29T07:10:25;19.75;;;19.50;;
1959;SDS011;980;43.794;11.212;2022-12-29T07:12:50;19.00;;;16.50;;
1959;SDS011;980;43.794;11.212;2022-12-29T19:29:30;6.75;;;5.00;;
1959;SDS011;980;43.794;11.212;2022-12-29T19:31:55;10.25;;;8.00;;
1959;SDS011;980;43.794;11.212;2022-12-29T19:41:35;8.50;;;8.00;;
1959;SDS011;980;43.794;11.212;2022-12-29T20:40:40;18.00;;;18.00;;
1959;SDS011;980;43.794;11.212;2022-12-29T20:43:07;20.75;;;18.00;;
1959;SDS011;980;43.794;11.212;2022-12-29T20:45:32;17.25;;;15.75;;
1959;SDS011;980;43.794;11.212;2022-12-29T20:47:57;18.75;;;18.75;;
1959;SDS011;980;43.794;11.212;2022-12-29T20:50:22;21.00;;;20.00;;
1959;SDS011;980;43.794;11.212;2022-12-29T20:52:48;17.75;;;16.25;;
1959;SDS011;980;43.794;11.212;2022-12-29T20:55:13;28.25;;;21.00;;
1959;SDS011;980;43.794;11.212;2022-12-29T20:57:38;21.75;;;20.50;;
1959;SDS011;980;43.794;11.212;2022-12-29T21:00:03;20.75;;;17.50;;
1959;SDS011;980;43.794;11.212;2022-12-29T21:02:30;25.00;;;22.00;;
1959;SDS011;980;43.794;11.212;2022-12-29T21:04:56;17.75;;;17.25;;
1959;SDS011;980;43.794;11.212;2022-12-29T21:07:21;20.25;;;18.50;;
1959;SDS011;980;43.794;11.212;2022-12-29T21:09:46;21.50;;;18.25;;
1959;SDS011;980;43.794;11.212;2022-12-29T21:12:11;21.25;;;18.50;;
1959;SDS011;980;43.794;11.212;2022-12-29T21:14:37;21.00;;;19.00;;
1959;SDS011;980;43.794;11.212;2022-12-29T21:17:02;24.50;;;22.00;;
1959;SDS011;980;43.794;11.212;2022-12-29T21:19:27;29.75;;;24.75;;
1959;SDS011;980;43.794;11.212;2022-12-29T21:21:53;31.75;;;26.00;;
1959;SDS011;980;43.794;11.212;2022-12-29T21:24:18;25.00;;;24.50;;
1959;SDS011;980;43.794;11.212;2022-12-29T21:26:43;26.00;;;21.25;;
1959;SDS011;980;43.794;11.212;2022-12-29T21:29:09;28.75;;;25.00;;
1959;SDS011;980;43.794;11.212;2022-12-29T21:31:34;34.00;;;29.00;;
1959;SDS011;980;43.794;11.212;2022-12-29T21:34:00;28.00;;;25.00;;
1959;SDS011;980;43.794;11.212;2022-12-29T21:36:26;30.25;;;26.00;;
1959;SDS011;980;43.794;11.212;2022-12-29T21:38:52;27.75;;;26.25;;
1959;SDS011;980;43.794;11.212;2022-12-29T21:41:18;31.25;;;28.25;;
1959;SDS011;980;43.794;11.212;2022-12-29T21:43:43;27.25;;;26.00;;
1959;SDS011;980;43.794;11.212;2022-12-29T21:46:32;28.00;;;25.50;;
1959;SDS011;980;43.794;11.212;2022-12-29T21:48:58;29.50;;;26.50;;
1959;SDS011;980;43.794;11.212;2022-12-29T21:51:23;28.25;;;26.00;;
1959;SDS011;980;43.794;11.212;2022-12-29T21:54:07;39.50;;;31.75;;
1959;SDS011;980;43.794;11.212;2022-12-29T21:56:51;29.00;;;27.25;;
1959;SDS011;980;43.794;11.212;2022-12-29T21:59:17;24.00;;;22.50;;
1959;SDS011;980;43.794;11.212;2022-12-29T22:02:02;28.25;;;24.75;;
1959;SDS011;980;43.794;11.212;2022-12-29T22:04:46;21.00;;;19.25;;
1959;SDS011;980;43.794;11.212;2022-12-29T22:07:30;28.75;;;25.50;;
1959;SDS011;980;43.794;11.212;2022-12-29T22:10:14;28.25;;;26.50;;
1959;SDS011;980;43.794;11.212;2022-12-29T22:12:58;29.00;;;27.50;;
1959;SDS011;980;43.794;11.212;2022-12-29T22:15:33;27.75;;;24.50;;
1959;SDS011;980;43.794;11.212;2022-12-29T22:18:00;31.75;;;25.50;;
1959;SDS011;980;43.794;11.212;2022-12-29T22:20:26;29.00;;;28.75;;
1959;SDS011;980;43.794;11.212;2022-12-29T22:22:52;2.75;;;1.00;;
1959;SDS011;980;43.794;11.212;2022-12-29T22:25:17;28.25;;;28.00;;
1959;SDS011;980;43.794;11.212;2022-12-29T22:27:42;31.25;;;27.25;;
1959;SDS011;980;43.794;11.212;2022-12-29T22:30:08;32.25;;;28.75;;
1959;SDS011;980;43.794;11.212;2022-12-29T22:32:34;34.00;;;25.50;;
1959;SDS011;980;43.794;11.212;2022-12-29T22:34:59;31.75;;;25.00;;
1959;SDS011;980;43.794;11.212;2022-12-29T22:37:25;27.25;;;26.75;;
1959;SDS011;980;43.794;11.212;2022-12-29T22:39:50;26.50;;;25.50;;
1959;SDS011;980;43.794;11.212;2022-12-29T22:42:16;27.50;;;26.00;;
1959;SDS011;980;43.794;11.212;2022-12-29T22:44:41;24.50;;;22.00;;
1959;SDS011;980;43.794;11.212;2022-12-29T22:47:06;29.50;;;25.25;;
1959;SDS011;980;43.794;11.212;2022-12-29T22:49:31;30.00;;;29.25;;
1959;SDS011;980;43.794;11.212;2022-12-29T22:51:57;31.00;;;26.75;;
1959;SDS011;980;43.794;11.212;2022-12-29T22:54:22;26.50;;;24.75;;
1959;SDS011;980;43.794;11.212;2022-12-29T22:56:47;26.25;;;24.00;;
1959;SDS011;980;43.794;11.212;2022-12-29T22:59:13;23.75;;;19.75;;
1959;SDS011;980;43.794;11.212;2022-12-29T23:01:38;28.50;;;21.00;;
